createdAt,value
2022-10-30T00:03:41.508Z,4
2022-10-30T00:08:22.817Z,4
2022-10-30T00:13:05.021Z,4
2022-10-30T00:17:47.336Z,4
2022-10-30T00:22:29.646Z,4
2022-10-30T00:27:11.856Z,4
2022-10-30T00:31:54.164Z,4
2022-10-30T00:36:36.480Z,9
2022-10-30T00:41:18.691Z,4
2022-10-30T00:46:01.002Z,4
2022-10-30T00:50:43.318Z,4
2022-10-30T00:55:25.535Z,9
2022-10-30T01:00:07.840Z,4
2022-10-30T01:04:50.154Z,9
2022-10-30T01:09:32.357Z,4
2022-10-30T01:14:13.742Z,4
2022-10-30T01:18:55.981Z,4
2022-10-30T01:23:38.289Z,4
2022-10-30T01:28:20.557Z,4
2022-10-30T01:33:02.812Z,4
2022-10-30T01:37:45.177Z,4
2022-10-30T01:42:27.335Z,9
2022-10-30T01:47:09.647Z,9
2022-10-30T01:56:34.172Z,4
2022-10-30T02:01:16.509Z,4
2022-10-30T02:05:58.795Z,4
2022-10-30T02:10:40.998Z,4
2022-10-30T02:15:22.390Z,4
2022-10-30T02:20:04.627Z,4
2022-10-30T02:24:46.936Z,4
2022-10-30T02:29:29.149Z,4
2022-10-30T02:34:11.458Z,4
2022-10-30T02:38:53.788Z,4
2022-10-30T02:43:35.980Z,4
2022-10-30T02:48:18.288Z,4
2022-10-30T02:53:00.622Z,4
2022-10-30T02:57:42.814Z,4
2022-10-30T03:02:25.133Z,4
2022-10-30T03:07:07.434Z,4
2022-10-30T03:11:49.648Z,4
2022-10-30T03:16:30.989Z,4
2022-10-30T03:21:13.292Z,4
2022-10-30T03:25:55.580Z,4
2022-10-30T03:30:37.791Z,4
2022-10-30T03:35:20.118Z,4
2022-10-30T03:40:02.415Z,4
2022-10-30T03:44:44.632Z,4
2022-10-30T03:49:26.963Z,4
2022-10-30T03:54:09.245Z,4
2022-10-30T03:58:51.460Z,4
2022-10-30T04:03:33.764Z,4
2022-10-30T04:08:16.090Z,4
2022-10-30T04:12:58.294Z,9
2022-10-30T04:17:40.605Z,9
2022-10-30T04:22:21.941Z,9
2022-10-30T04:27:04.243Z,9
2022-10-30T04:31:46.495Z,9
2022-10-30T04:36:28.763Z,9
2022-10-30T04:41:11.059Z,9
2022-10-30T04:45:53.269Z,9
2022-10-30T04:50:35.616Z,9
2022-10-30T04:55:17.985Z,9
2022-10-30T05:00:00.108Z,9
2022-10-30T05:04:42.431Z,9
2022-10-30T05:09:24.727Z,9
2022-10-30T05:14:07.071Z,9
2022-10-30T05:18:49.256Z,9
2022-10-30T05:23:30.569Z,9
2022-10-30T05:28:12.888Z,12
2022-10-30T05:32:55.081Z,18
2022-10-30T05:37:37.392Z,23
2022-10-30T05:42:19.712Z,55
2022-10-30T05:47:02.022Z,94
2022-10-30T05:51:44.225Z,133
2022-10-30T05:56:26.533Z,293
2022-10-30T06:01:08.873Z,447
2022-10-30T06:05:51.074Z,629
2022-10-30T06:10:33.368Z,839
2022-10-30T06:15:15.681Z,1126
2022-10-30T06:19:57.890Z,1421
2022-10-30T06:24:39.225Z,1697
2022-10-30T06:29:21.515Z,1971
2022-10-30T06:34:03.861Z,2390
2022-10-30T06:38:46.065Z,2826
2022-10-30T06:43:28.383Z,3202
2022-10-30T06:48:10.656Z,3608
2022-10-30T06:52:52.873Z,4050
2022-10-30T06:57:35.192Z,4581
2022-10-30T07:02:17.544Z,5227
2022-10-30T07:06:59.701Z,5828
2022-10-30T07:11:42.021Z,6192
2022-10-30T07:16:23.320Z,6351
2022-10-30T07:21:05.633Z,6465
2022-10-30T07:25:47.845Z,6665
2022-10-30T07:30:30.155Z,6946
2022-10-30T07:35:12.470Z,7685
2022-10-30T07:39:54.719Z,8631
2022-10-30T07:44:37.007Z,9437
2022-10-30T07:49:19.315Z,10065
2022-10-30T07:54:01.516Z,10603
2022-10-30T07:58:43.826Z,10588
2022-10-30T08:03:26.163Z,10729
2022-10-30T08:08:08.365Z,10776
2022-10-30T08:12:50.668Z,10757
2022-10-30T08:17:31.977Z,10909
2022-10-30T08:22:14.301Z,10994
2022-10-30T08:26:56.492Z,10790
2022-10-30T08:31:38.805Z,10899
2022-10-30T08:36:21.146Z,11387
2022-10-30T08:41:03.360Z,12362
2022-10-30T08:45:45.639Z,14775
2022-10-30T08:50:28.020Z,14214
2022-10-30T08:55:10.209Z,14689
2022-10-30T08:59:52.487Z,13047
2022-10-30T09:04:34.786Z,13834
2022-10-30T09:09:16.998Z,12812
2022-10-30T09:13:59.316Z,22624
2022-10-30T09:18:40.618Z,24172
2022-10-30T09:23:22.925Z,25960
2022-10-30T09:32:47.479Z,26140
2022-10-30T09:37:29.836Z,34109
2022-10-30T09:42:11.996Z,35609
2022-10-30T09:46:54.342Z,37644
2022-10-30T09:51:36.623Z,38522
2022-10-30T09:56:18.809Z,38832
2022-10-30T10:01:01.123Z,41750
2022-10-30T10:05:43.433Z,44542
2022-10-30T10:10:25.645Z,45670
2022-10-30T10:15:07.962Z,42520
2022-10-30T10:19:49.294Z,44980
2022-10-30T10:24:31.483Z,43576
2022-10-30T10:33:56.107Z,49996
2022-10-30T10:38:38.320Z,52245
2022-10-30T10:43:20.627Z,55650
2022-10-30T10:48:02.953Z,59159
2022-10-30T10:52:45.308Z,56861
2022-10-30T10:57:27.466Z,61219
2022-10-30T11:02:09.781Z,58119
2022-10-30T11:06:52.109Z,51183
2022-10-30T11:11:34.308Z,55584
2022-10-30T11:16:16.620Z,55833
2022-10-30T11:20:58.930Z,54348
2022-10-30T11:25:40.246Z,53403
2022-10-30T11:30:22.470Z,52588
2022-10-30T11:35:04.776Z,54641
2022-10-30T11:39:47.115Z,52198
2022-10-30T11:44:29.317Z,54464
2022-10-30T11:49:11.624Z,49464
2022-10-30T11:53:53.925Z,50063
2022-10-30T11:58:36.131Z,52486
2022-10-30T12:03:18.488Z,49722
2022-10-30T12:08:00.759Z,53342
2022-10-30T12:12:43.150Z,47659
2022-10-30T12:17:25.284Z,51014
2022-10-30T12:22:07.601Z,49467
2022-10-30T12:26:48.904Z,50373
2022-10-30T12:31:31.229Z,47444
2022-10-30T12:36:13.477Z,45606
2022-10-30T12:45:38.057Z,39324
2022-10-30T12:55:02.579Z,31759
2022-10-30T12:59:44.917Z,32728
2022-10-30T13:04:27.222Z,35043
2022-10-30T13:09:09.416Z,32888
2022-10-30T13:13:51.726Z,34149
2022-10-30T13:18:34.108Z,33122
2022-10-30T13:23:16.323Z,32239
2022-10-30T13:32:39.899Z,28020
2022-10-30T13:37:21.180Z,26818
2022-10-30T13:42:03.515Z,22276
2022-10-30T13:46:44.801Z,20738
2022-10-30T13:51:27.015Z,19837
2022-10-30T13:56:09.322Z,19755
2022-10-30T14:00:51.642Z,19806
2022-10-30T14:10:16.156Z,24652
2022-10-30T14:19:40.833Z,14491
2022-10-30T14:24:23.001Z,12978
2022-10-30T14:29:05.297Z,9718
2022-10-30T14:33:47.622Z,8069
2022-10-30T14:38:28.996Z,7202
2022-10-30T14:43:10.126Z,6089
2022-10-30T14:47:52.467Z,6146
2022-10-30T14:57:17.087Z,5451
2022-10-30T15:06:41.585Z,4307
2022-10-30T15:11:23.903Z,3970
2022-10-30T15:16:06.114Z,3663
2022-10-30T15:20:48.416Z,3436
2022-10-30T15:25:30.733Z,3061
2022-10-30T15:30:12.951Z,2439
2022-10-30T15:34:55.270Z,1812
2022-10-30T15:39:37.573Z,1312
2022-10-30T15:44:19.774Z,913
2022-10-30T15:53:43.391Z,413
2022-10-30T16:03:07.927Z,186
2022-10-30T16:07:50.220Z,111
2022-10-30T16:12:32.535Z,62
2022-10-30T16:17:14.747Z,30
2022-10-30T16:21:57.067Z,15
2022-10-30T16:26:39.390Z,12
2022-10-30T16:31:21.670Z,9
2022-10-30T16:40:46.203Z,9
2022-10-30T16:50:10.716Z,4
2022-10-30T16:54:52.075Z,4
2022-10-30T16:59:34.337Z,4
2022-10-30T17:04:16.576Z,4
2022-10-30T17:08:58.925Z,9
2022-10-30T17:13:41.228Z,9
2022-10-30T17:18:23.381Z,9
2022-10-30T17:27:48.001Z,9
2022-10-30T17:37:12.538Z,4
2022-10-30T17:41:54.829Z,4
2022-10-30T17:46:37.099Z,4
2022-10-30T17:51:19.352Z,9
2022-10-30T17:56:00.667Z,4
2022-10-30T18:00:42.971Z,4
2022-10-30T18:05:25.180Z,9
2022-10-30T18:14:49.824Z,4
2022-10-30T18:24:14.356Z,9
2022-10-30T18:28:56.659Z,4
2022-10-30T18:33:38.943Z,4
2022-10-30T18:38:21.161Z,9
2022-10-30T18:47:45.786Z,4
2022-10-30T18:52:27.986Z,4
2022-10-30T19:01:51.611Z,4
2022-10-30T19:11:16.123Z,4
2022-10-30T19:15:58.438Z,4
2022-10-30T19:20:40.749Z,4
2022-10-30T19:25:22.954Z,4
2022-10-30T19:30:05.303Z,7
2022-10-30T19:34:47.574Z,4
2022-10-30T19:39:29.785Z,4
2022-10-30T19:48:54.406Z,3
2022-10-30T19:58:18.925Z,7
2022-10-30T20:03:00.236Z,7
2022-10-30T20:07:42.599Z,7
2022-10-30T20:12:24.753Z,7
2022-10-30T20:17:07.068Z,7
2022-10-30T20:21:49.374Z,7
2022-10-30T20:26:31.620Z,3
2022-10-30T20:35:56.231Z,7
2022-10-30T20:45:20.737Z,7
2022-10-30T20:50:03.118Z,7
2022-10-30T20:54:45.357Z,7
2022-10-30T20:59:27.573Z,3
2022-10-30T21:04:08.882Z,3
2022-10-30T21:08:51.310Z,3
2022-10-30T21:13:33.475Z,3
2022-10-30T21:22:58.173Z,3
2022-10-30T21:32:22.687Z,3
2022-10-30T21:37:04.933Z,3
2022-10-30T21:41:47.168Z,3
2022-10-30T21:46:29.487Z,3
2022-10-30T21:51:11.730Z,3
2022-10-30T21:55:54.017Z,3
2022-10-30T22:00:36.346Z,3
2022-10-30T22:09:59.860Z,3
2022-10-30T22:19:24.402Z,3
2022-10-30T22:24:06.711Z,3
2022-10-30T22:28:49.042Z,3
2022-10-30T22:33:31.187Z,3
2022-10-30T22:38:13.494Z,3
2022-10-30T22:42:55.904Z,3
2022-10-30T22:47:38.098Z,3
2022-10-30T22:57:02.647Z,3
2022-10-30T23:06:26.257Z,3
2022-10-30T23:11:07.466Z,3
2022-10-30T23:15:49.875Z,10
2022-10-30T23:20:32.164Z,30
2022-10-30T23:25:14.335Z,37
2022-10-30T23:29:56.698Z,33
2022-10-30T23:34:39.014Z,25
2022-10-30T23:44:03.556Z,24
2022-10-30T23:53:28.067Z,31
2022-10-30T23:58:10.268Z,31
